X-preSS Monte Bianco — 9HA3446 — position and weather

sailwx.info

Track history (hours):
 
Tides and Currents Weather Stations Pressure Air Temp Water Temp Dewpoint Dewpoint Depression Visibility Wind Speed Wind Dir Waves Ship Positions

X-preSS Monte Bianco

Last reported at 2017-Nov-18 20:23 UTC. Time now 2017-Nov-21 02:28 UTC.
Position N 35°57' W 005°35'.

Length 130 m; draft 7.3 m.

Type: Cargo ship. MMSI: 229610000.

Date/timePositionNaut miles runAvg speedWind from/ knotsBaromVisibWave heightAir tempDewpointWater temp
2017-Nov-18 20:23N 35°57' W 005°35'410.5
2017-Nov-18 20:01N 35°59' W 005°31'610.2
2017-Nov-18 19:25N 36°02' W 005°25'6 0.4
2017-Nov-18 05:09N 36°08' W 005°25'0 0.9
2017-Nov-18 05:00N 36°08' W 005°25'3 0.1
2017-Nov-17 00:48N 36°10' W 005°24'2 3.4
2017-Nov-17 00:21N 36°09' W 005°24'2 4.7
2017-Nov-16 23:59N 36°07' W 005°24'4 9.2
2017-Nov-16 23:31N 36°04' W 005°20'611.3
2017-Nov-16 23:00N 36°06' W 005°13'220 8.5
2017-Nov-15 21:14N 37°20' W 000°55'312.5
2017-Nov-15 20:58N 37°22' W 000°51'613.3
2017-Nov-15 20:30N 37°26' W 000°46'813.2
2017-Nov-15 19:53N 37°31' W 000°38'513.1
2017-Nov-15 19:30N 37°35' W 000°34'713.0
2017-Nov-15 19:00N 37°41' W 000°29'23111.7
2017-Nov-14 23:11N 41°01' E 001°59'10 1.0
2017-Nov-14 13:37N 41°10' E 002°04'111.9
2017-Nov-14 13:30N 41°09' E 002°03'611.8
2017-Nov-14 13:00N 41°04' E 001°58'612.0
2017-Nov-14 12:29N 40°59' E 001°54'  
2017-Nov-11 07:31N 37°45' W 000°21'0 9.9
2017-Nov-11 07:30N 37°45' W 000°21'510.4
2017-Nov-11 07:00N 37°41' W 000°25'510.2
2017-Nov-11 06:30N 37°36' W 000°28'510.1
2017-Nov-11 06:00N 37°32' W 000°32'710.0
2017-Nov-11 05:16N 37°28' W 000°39'3 9.6
2017-Nov-11 05:00N 37°26' W 000°41'5 9.3
2017-Nov-11 04:30N 37°23' W 000°46'5 9.3
2017-Nov-11 03:59N 37°20' W 000°50'5 9.4
2017-Nov-11 03:29N 37°17' W 000°55'22210.6
2017-Nov-10 06:31N 36°01' W 005°15'012.7
2017-Nov-10 06:30N 36°01' W 005°15'612.3
2017-Nov-10 06:00N 36°03' W 005°22'6 8.9
2017-Nov-10 05:22N 36°08' W 005°25'0 0.2
2017-Nov-10 03:37N 36°08' W 005°25'0 0.0
2017-Nov-10 03:25N 36°08' W 005°25'0 0.0
2017-Nov-10 02:55N 36°08' W 005°25'0 0.0
2017-Nov-10 01:01N 36°08' W 005°25'0 0.0
2017-Nov-10 00:43N 36°08' W 005°25'0 0.0
2017-Nov-09 23:54N 36°08' W 005°25'1 2.6
2017-Nov-09 23:30N 36°08' W 005°24'4 7.4
2017-Nov-09 23:00N 36°05' W 005°23'5 9.3
2017-Nov-09 22:30N 35°60' W 005°24'4 8.2
2017-Nov-09 22:00N 35°58' W 005°28'  
Track history (hours):
 
Tides and Currents Weather Stations Pressure Air Temp Water Temp Dewpoint Dewpoint Depression Visibility Wind Speed Wind Dir Waves Ship Positions

X-preSS Monte Bianco

Last reported at 2017-Nov-18 20:23 UTC. Time now 2017-Nov-21 02:28 UTC.
Position N 35°57' W 005°35'.

Length 130 m; draft 7.3 m.

Type: Cargo ship. MMSI: 229610000.

Date/timePositionNaut miles runAvg speedWind from/ knotsBaromVisibWave heightAir tempDewpointWater temp
2017-Nov-18 20:23N 35°57' W 005°35'410.5
2017-Nov-18 20:01N 35°59' W 005°31'610.2
2017-Nov-18 19:25N 36°02' W 005°25'6 0.4
2017-Nov-18 05:09N 36°08' W 005°25'0 0.9
2017-Nov-18 05:00N 36°08' W 005°25'3 0.1
2017-Nov-17 00:48N 36°10' W 005°24'2 3.4
2017-Nov-17 00:21N 36°09' W 005°24'2 4.7
2017-Nov-16 23:59N 36°07' W 005°24'4 9.2
2017-Nov-16 23:31N 36°04' W 005°20'611.3
2017-Nov-16 23:00N 36°06' W 005°13'220 8.5
2017-Nov-15 21:14N 37°20' W 000°55'312.5
2017-Nov-15 20:58N 37°22' W 000°51'613.3
2017-Nov-15 20:30N 37°26' W 000°46'813.2
2017-Nov-15 19:53N 37°31' W 000°38'513.1
2017-Nov-15 19:30N 37°35' W 000°34'713.0
2017-Nov-15 19:00N 37°41' W 000°29'23111.7
2017-Nov-14 23:11N 41°01' E 001°59'10 1.0
2017-Nov-14 13:37N 41°10' E 002°04'111.9
2017-Nov-14 13:30N 41°09' E 002°03'611.8
2017-Nov-14 13:00N 41°04' E 001°58'612.0
2017-Nov-14 12:29N 40°59' E 001°54'  
2017-Nov-11 07:31N 37°45' W 000°21'0 9.9
2017-Nov-11 07:30N 37°45' W 000°21'510.4
2017-Nov-11 07:00N 37°41' W 000°25'510.2
2017-Nov-11 06:30N 37°36' W 000°28'510.1
2017-Nov-11 06:00N 37°32' W 000°32'710.0
2017-Nov-11 05:16N 37°28' W 000°39'3 9.6
2017-Nov-11 05:00N 37°26' W 000°41'5 9.3
2017-Nov-11 04:30N 37°23' W 000°46'5 9.3
2017-Nov-11 03:59N 37°20' W 000°50'5 9.4
2017-Nov-11 03:29N 37°17' W 000°55'22210.6
2017-Nov-10 06:31N 36°01' W 005°15'012.7
2017-Nov-10 06:30N 36°01' W 005°15'612.3
2017-Nov-10 06:00N 36°03' W 005°22'6 8.9
2017-Nov-10 05:22N 36°08' W 005°25'0 0.2
2017-Nov-10 03:37N 36°08' W 005°25'0 0.0
2017-Nov-10 03:25N 36°08' W 005°25'0 0.0
2017-Nov-10 02:55N 36°08' W 005°25'0 0.0
2017-Nov-10 01:01N 36°08' W 005°25'0 0.0
2017-Nov-10 00:43N 36°08' W 005°25'0 0.0
2017-Nov-09 23:54N 36°08' W 005°25'1 2.6
2017-Nov-09 23:30N 36°08' W 005°24'4 7.4
2017-Nov-09 23:00N 36°05' W 005°23'5 9.3
2017-Nov-09 22:30N 35°60' W 005°24'4 8.2
2017-Nov-09 22:00N 35°58' W 005°28'  

Dump ship's entire track history